createdAt,value
2023-03-10T00:00:12.848Z,17.90
2023-03-10T00:02:46.686Z,17.52
2023-03-10T00:05:16.504Z,18.23
2023-03-10T00:07:46.723Z,15.60
2023-03-10T00:10:16.630Z,16.52
2023-03-10T00:12:45.691Z,16.73
2023-03-10T00:15:15.065Z,16.83
2023-03-10T00:17:44.146Z,24.88
2023-03-10T00:20:14.575Z,17.60
2023-03-10T00:25:13.463Z,20.00
2023-03-10T00:27:42.494Z,24.83
2023-03-10T00:30:13.306Z,17.85
2023-03-10T00:32:42.443Z,22.02
2023-03-10T00:35:11.531Z,22.35
2023-03-10T00:37:40.832Z,16.90
2023-03-10T00:40:12.557Z,24.13
2023-03-10T00:42:43.325Z,21.67
2023-03-10T00:45:13.917Z,19.30
2023-03-10T00:47:44.353Z,24.88
2023-03-10T00:50:14.242Z,25.10
2023-03-10T00:52:42.866Z,26.73
2023-03-10T00:55:13.571Z,22.05
2023-03-10T00:57:44.024Z,19.25
2023-03-10T01:00:18.073Z,26.40
2023-03-10T01:02:47.188Z,18.42
2023-03-10T01:05:16.457Z,25.67
2023-03-10T01:07:45.192Z,22.65
2023-03-10T01:10:15.007Z,24.58
2023-03-10T01:12:45.793Z,18.25
2023-03-10T01:15:15.134Z,23.25
2023-03-10T01:17:44.910Z,28.00
2023-03-10T01:20:16.880Z,21.30
2023-03-10T01:22:45.750Z,19.48
2023-03-10T01:25:15.816Z,23.90
2023-03-10T01:30:16.127Z,28.10
2023-03-10T01:32:45.539Z,27.90
2023-03-10T01:35:14.951Z,26.48
2023-03-10T01:37:44.599Z,31.75
2023-03-10T01:40:16.557Z,30.50
2023-03-10T01:42:47.416Z,35.13
2023-03-10T01:45:46.000Z,31.95
2023-03-10T01:48:17.910Z,28.60
2023-03-10T01:50:48.357Z,28.13
2023-03-10T01:53:18.007Z,22.63
2023-03-10T01:55:50.732Z,29.95
2023-03-10T01:58:23.252Z,32.20
2023-03-10T02:00:54.294Z,29.65
2023-03-10T02:03:25.143Z,34.28
2023-03-10T02:05:57.398Z,39.47
2023-03-10T02:08:27.712Z,23.38
2023-03-10T02:10:58.634Z,32.33
2023-03-10T02:15:58.157Z,33.83
2023-03-10T02:18:27.728Z,27.83
2023-03-10T02:21:03.188Z,37.00
2023-03-10T02:23:36.426Z,24.50
2023-03-10T02:26:10.578Z,31.30
2023-03-10T02:28:40.738Z,30.40
2023-03-10T02:31:10.734Z,34.42
2023-03-10T02:33:39.863Z,32.03
2023-03-10T02:36:18.955Z,33.30
2023-03-10T02:38:48.250Z,34.77
2023-03-10T02:41:21.819Z,31.38
2023-03-10T02:43:52.552Z,32.17
2023-03-10T02:46:26.811Z,35.83
2023-03-10T02:48:56.160Z,36.87
2023-03-10T02:51:32.803Z,36.08
2023-03-10T02:54:08.230Z,36.67
2023-03-10T02:56:38.411Z,34.55
2023-03-10T02:59:09.517Z,35.03
2023-03-10T03:01:42.329Z,37.17
2023-03-10T03:04:11.902Z,33.22
2023-03-10T03:06:41.187Z,31.37
2023-03-10T03:09:10.790Z,32.67
2023-03-10T03:11:39.788Z,34.15
2023-03-10T03:14:12.563Z,30.92
2023-03-10T03:19:13.769Z,36.83
2023-03-10T03:21:50.203Z,35.20
2023-03-10T03:24:21.342Z,35.10
2023-03-10T03:26:51.079Z,34.92
2023-03-10T03:29:25.858Z,31.90
2023-03-10T03:31:55.498Z,35.92
2023-03-10T03:34:28.188Z,36.17
2023-03-10T03:37:00.638Z,30.13
2023-03-10T03:39:36.938Z,21.05
2023-03-10T03:42:09.151Z,36.38
2023-03-10T03:44:49.382Z,27.30
2023-03-10T03:47:18.769Z,38.25
2023-03-10T03:49:47.542Z,33.50
2023-03-10T03:52:16.693Z,30.60
2023-03-10T03:54:45.852Z,31.35
2023-03-10T03:57:15.635Z,36.45
2023-03-10T03:59:45.395Z,38.15
2023-03-10T04:02:15.996Z,35.20
2023-03-10T04:04:44.881Z,35.83
2023-03-10T04:07:14.682Z,27.40
2023-03-10T04:09:44.722Z,37.97
2023-03-10T04:12:14.007Z,39.58
2023-03-10T04:14:46.990Z,34.83
2023-03-10T04:17:17.536Z,31.88
2023-03-10T04:22:26.574Z,31.30
2023-03-10T04:24:56.182Z,40.38
2023-03-10T04:27:25.640Z,33.33
2023-03-10T04:29:54.807Z,22.45
2023-03-10T04:32:25.899Z,39.08
2023-03-10T04:34:54.654Z,35.88
2023-03-10T04:37:23.825Z,43.63
2023-03-10T04:39:53.138Z,46.70
2023-03-10T04:42:23.591Z,47.67
2023-03-10T04:44:53.092Z,45.53
2023-03-10T04:47:22.671Z,37.78
2023-03-10T04:49:53.338Z,52.95
2023-03-10T04:52:22.632Z,57.88
2023-03-10T04:54:52.133Z,40.78
2023-03-10T04:57:21.489Z,55.83
2023-03-10T04:59:50.819Z,38.17
2023-03-10T05:02:20.126Z,52.47
2023-03-10T05:04:49.054Z,47.28
2023-03-10T05:07:19.790Z,41.37
2023-03-10T05:09:50.825Z,40.47
2023-03-10T05:12:20.477Z,43.90
2023-03-10T05:14:49.482Z,44.50
2023-03-10T05:17:18.734Z,38.28
2023-03-10T05:19:47.393Z,49.38
2023-03-10T05:22:16.648Z,45.00
2023-03-10T05:24:48.113Z,44.20
2023-03-10T05:27:22.010Z,46.30
2023-03-10T05:29:51.727Z,53.13
2023-03-10T05:32:24.212Z,46.30
2023-03-10T05:34:53.973Z,24.88
2023-03-10T05:37:23.237Z,55.13
2023-03-10T05:39:53.914Z,47.60
2023-03-10T05:42:24.524Z,47.05
2023-03-10T05:44:54.485Z,47.33
2023-03-10T05:47:23.739Z,54.40
2023-03-10T05:49:52.556Z,32.28
2023-03-10T05:52:21.819Z,28.38
2023-03-10T05:54:51.268Z,48.55
2023-03-10T05:57:22.648Z,49.75
2023-03-10T05:59:51.885Z,51.58
2023-03-10T06:02:21.117Z,50.58
2023-03-10T06:04:49.804Z,56.15
2023-03-10T06:07:18.976Z,44.58
2023-03-10T06:09:48.048Z,56.38
2023-03-10T06:12:17.056Z,54.83
2023-03-10T06:14:47.574Z,53.75
2023-03-10T06:17:18.720Z,66.25
2023-03-10T06:19:48.517Z,74.63
2023-03-10T06:22:17.634Z,78.77
2023-03-10T06:24:46.706Z,72.63
2023-03-10T06:27:15.828Z,63.08
2023-03-10T06:29:48.663Z,32.85
2023-03-10T06:32:17.935Z,49.42
2023-03-10T06:34:46.972Z,76.38
2023-03-10T06:37:16.582Z,48.58
2023-03-10T06:39:46.122Z,53.78
2023-03-10T06:42:15.280Z,59.83
2023-03-10T06:44:44.446Z,58.28
2023-03-10T06:47:15.262Z,45.05
2023-03-10T06:49:44.071Z,71.00
2023-03-10T06:52:13.076Z,34.67
2023-03-10T06:54:42.120Z,65.03
2023-03-10T06:57:11.186Z,55.33
2023-03-10T06:59:40.171Z,55.67
2023-03-10T07:02:10.949Z,51.95
2023-03-10T07:04:41.543Z,54.80
2023-03-10T07:07:10.741Z,61.75
2023-03-10T07:09:39.810Z,65.97
2023-03-10T07:12:09.331Z,66.97
2023-03-10T07:14:38.336Z,58.85
2023-03-10T07:17:07.538Z,48.10
2023-03-10T07:19:36.421Z,65.35
2023-03-10T07:22:08.239Z,66.10
2023-03-10T07:24:38.428Z,59.30
2023-03-10T07:27:07.714Z,67.38
2023-03-10T07:29:37.218Z,54.40
2023-03-10T07:32:06.936Z,51.50
2023-03-10T07:34:35.680Z,40.92
2023-03-10T07:37:04.806Z,55.13
2023-03-10T07:39:35.642Z,47.97
2023-03-10T07:42:05.447Z,62.20
2023-03-10T07:44:35.621Z,56.22
2023-03-10T07:47:04.767Z,52.08
2023-03-10T07:49:33.413Z,69.60
2023-03-10T07:52:02.555Z,69.70
2023-03-10T07:54:31.651Z,65.88
2023-03-10T07:57:02.140Z,65.85
2023-03-10T07:59:31.424Z,72.50
2023-03-10T08:02:00.587Z,61.15
2023-03-10T08:04:29.663Z,41.83
2023-03-10T08:07:02.214Z,60.87
2023-03-10T08:09:31.597Z,64.40
2023-03-10T08:12:03.371Z,51.15
2023-03-10T08:14:33.337Z,67.28
2023-03-10T08:17:04.925Z,64.38
2023-03-10T08:19:33.677Z,65.43
2023-03-10T08:22:03.015Z,43.35
2023-03-10T08:24:32.443Z,66.88
2023-03-10T08:27:03.085Z,45.10
2023-03-10T08:29:32.267Z,63.45
2023-03-10T08:32:01.723Z,46.05
2023-03-10T08:34:33.939Z,78.72
2023-03-10T08:37:04.352Z,68.50
2023-03-10T08:42:03.956Z,52.85
2023-03-10T08:44:33.169Z,48.20
2023-03-10T08:47:02.676Z,47.67
2023-03-10T08:49:31.787Z,51.53
2023-03-10T08:52:01.260Z,51.03
2023-03-10T08:54:32.621Z,49.50
2023-03-10T08:57:03.747Z,37.92
2023-03-10T08:59:32.952Z,51.55
2023-03-10T09:02:03.611Z,53.20
2023-03-10T09:04:32.475Z,48.92
2023-03-10T09:07:01.526Z,30.42
2023-03-10T09:09:30.625Z,45.50
2023-03-10T09:11:59.955Z,44.63
2023-03-10T09:14:30.523Z,41.08
2023-03-10T09:16:59.857Z,39.83
2023-03-10T09:19:29.119Z,35.38
2023-03-10T09:21:59.468Z,40.83
2023-03-10T09:26:57.459Z,40.60
2023-03-10T09:29:42.218Z,35.53
2023-03-10T09:32:13.933Z,51.88
2023-03-10T09:34:43.228Z,50.95
2023-03-10T09:37:12.325Z,33.92
2023-03-10T09:39:41.379Z,46.35
2023-03-10T09:42:37.772Z,40.35
2023-03-10T09:45:26.976Z,37.95
2023-03-10T09:48:13.386Z,41.65
2023-03-10T09:50:45.188Z,36.67
2023-03-10T09:53:42.346Z,30.90
2023-03-10T09:56:13.521Z,38.53
2023-03-10T09:58:45.038Z,47.88
2023-03-10T10:01:17.384Z,45.40
2023-03-10T10:03:53.322Z,46.38
2023-03-10T10:06:28.338Z,53.97
2023-03-10T10:09:04.794Z,48.13
2023-03-10T10:11:36.637Z,56.00
2023-03-10T10:14:30.004Z,79.32
2023-03-10T10:17:06.445Z,44.60
2023-03-10T10:19:39.508Z,50.05
2023-03-10T10:22:12.237Z,50.70
2023-03-10T10:24:41.829Z,35.42
2023-03-10T10:27:11.130Z,51.08
2023-03-10T10:29:42.478Z,49.95
2023-03-10T10:32:12.787Z,38.17
2023-03-10T10:34:43.963Z,35.22
2023-03-10T10:37:29.471Z,48.38
2023-03-10T10:39:59.652Z,41.13
2023-03-10T10:42:30.825Z,42.20
2023-03-10T10:45:02.364Z,47.72
2023-03-10T10:47:33.440Z,41.55
2023-03-10T10:50:23.017Z,44.33
2023-03-10T10:52:53.356Z,31.52
2023-03-10T10:55:28.710Z,53.08
2023-03-10T10:58:01.321Z,23.50
2023-03-10T11:00:32.034Z,44.97
2023-03-10T11:05:37.666Z,34.58
2023-03-10T11:08:22.460Z,35.70
2023-03-10T11:10:58.038Z,46.38
2023-03-10T11:13:30.716Z,42.00
2023-03-10T11:16:04.328Z,29.80
2023-03-10T11:18:36.928Z,31.42
2023-03-10T11:21:12.815Z,40.30
2023-03-10T11:23:46.672Z,26.90
2023-03-10T11:26:21.112Z,38.83
2023-03-10T11:28:54.849Z,51.10
2023-03-10T11:31:35.436Z,30.50
2023-03-10T11:34:17.366Z,34.38
2023-03-10T11:36:56.741Z,39.35
2023-03-10T11:39:32.456Z,34.33
2023-03-10T11:42:06.879Z,38.80
2023-03-10T11:44:39.802Z,33.42
2023-03-10T11:47:14.512Z,30.00
2023-03-10T11:49:45.954Z,45.20
2023-03-10T11:52:18.818Z,31.77
2023-03-10T11:54:50.940Z,32.92
2023-03-10T11:57:21.527Z,25.45
2023-03-10T11:59:55.013Z,23.50
2023-03-10T12:02:27.284Z,21.17
2023-03-10T12:05:00.008Z,14.63
2023-03-10T12:07:31.862Z,16.25
2023-03-10T12:10:02.252Z,17.30
2023-03-10T12:17:31.292Z,14.40
2023-03-10T12:20:24.786Z,11.00
2023-03-10T12:22:56.450Z,15.65
2023-03-10T12:25:44.661Z,15.43
2023-03-10T12:28:27.515Z,13.70
2023-03-10T12:30:59.591Z,12.07
2023-03-10T12:33:55.914Z,13.15
2023-03-10T12:36:34.358Z,15.43
2023-03-10T12:39:25.542Z,12.30
2023-03-10T12:41:54.778Z,14.45
2023-03-10T12:44:45.461Z,12.00
2023-03-10T12:49:49.013Z,12.15
2023-03-10T12:52:23.526Z,10.18
2023-03-10T12:55:22.211Z,10.35
2023-03-10T12:58:05.716Z,9.70
2023-03-10T13:00:41.639Z,13.90
2023-03-10T13:03:19.978Z,8.07
2023-03-10T13:06:01.158Z,7.88
2023-03-10T13:08:36.383Z,9.38
2023-03-10T13:11:08.109Z,9.23
2023-03-10T13:13:37.909Z,8.35
2023-03-10T13:16:08.474Z,7.18
2023-03-10T13:18:37.523Z,10.95
2023-03-10T13:21:06.947Z,7.50
2023-03-10T13:23:36.932Z,8.98
2023-03-10T13:26:09.040Z,6.53
2023-03-10T13:28:38.972Z,6.63
2023-03-10T13:31:18.435Z,14.73
2023-03-10T13:33:53.386Z,11.13
2023-03-10T13:36:32.500Z,9.48
2023-03-10T13:39:03.729Z,9.30
2023-03-10T13:41:37.560Z,9.95
2023-03-10T13:44:06.589Z,8.40
2023-03-10T13:46:35.873Z,9.02
2023-03-10T13:49:07.522Z,6.13
2023-03-10T13:51:38.397Z,10.30
2023-03-10T13:54:20.163Z,6.75
2023-03-10T13:56:52.451Z,10.18
2023-03-10T13:59:23.334Z,8.13
2023-03-10T14:01:55.686Z,8.95
2023-03-10T14:04:44.806Z,6.25
2023-03-10T14:07:17.543Z,12.30
2023-03-10T14:09:47.837Z,8.40
2023-03-10T14:12:37.101Z,11.20
2023-03-10T14:15:13.634Z,9.15
2023-03-10T14:17:43.678Z,6.65
2023-03-10T14:20:13.169Z,8.90
2023-03-10T14:22:43.406Z,6.15
2023-03-10T14:25:15.172Z,7.60
2023-03-10T14:27:47.786Z,7.43
2023-03-10T14:30:21.036Z,8.75
2023-03-10T14:32:50.132Z,9.07
2023-03-10T14:35:21.521Z,6.50
2023-03-10T14:37:50.985Z,9.75
2023-03-10T14:40:21.538Z,15.55
2023-03-10T14:48:01.198Z,7.22
2023-03-10T14:52:59.208Z,8.10
2023-03-10T14:55:29.051Z,7.50
2023-03-10T14:58:03.003Z,6.70
2023-03-10T15:00:32.601Z,6.57
2023-03-10T15:03:01.724Z,7.53
2023-03-10T15:05:47.393Z,7.88
2023-03-10T15:08:17.467Z,7.95
2023-03-10T15:10:48.447Z,5.50
2023-03-10T15:13:20.240Z,5.82
2023-03-10T15:15:50.067Z,8.10
2023-03-10T15:18:21.365Z,6.00
2023-03-10T15:20:50.603Z,7.75
2023-03-10T15:23:20.390Z,9.50
2023-03-10T15:25:49.334Z,7.13
2023-03-10T15:28:19.817Z,8.48
2023-03-10T15:30:49.204Z,6.32
2023-03-10T15:33:18.384Z,7.00
2023-03-10T15:35:47.516Z,7.25
2023-03-10T15:38:16.909Z,10.75
2023-03-10T15:40:45.688Z,7.97
2023-03-10T15:43:14.934Z,9.07
2023-03-10T15:45:46.780Z,6.80
2023-03-10T15:48:16.462Z,6.88
2023-03-10T15:50:48.632Z,8.57
2023-03-10T15:53:17.707Z,9.23
2023-03-10T15:55:46.232Z,11.00
2023-03-10T15:58:15.134Z,11.85
2023-03-10T16:00:45.625Z,14.20
2023-03-10T16:03:18.073Z,11.85
2023-03-10T16:05:49.129Z,10.23
2023-03-10T16:08:19.447Z,14.07
2023-03-10T16:10:54.917Z,13.02
2023-03-10T16:13:25.252Z,10.85
2023-03-10T16:15:55.744Z,16.73
2023-03-10T16:18:24.892Z,16.00
2023-03-10T16:20:58.655Z,15.27
2023-03-10T16:23:28.453Z,21.40
2023-03-10T16:26:07.557Z,14.35
2023-03-10T16:28:36.682Z,16.00
2023-03-10T16:31:07.766Z,19.83
2023-03-10T16:33:36.734Z,20.23
2023-03-10T16:36:07.849Z,19.30
2023-03-10T16:38:37.782Z,19.30
2023-03-10T16:41:07.808Z,15.48
2023-03-10T16:43:36.252Z,20.30
2023-03-10T16:46:09.777Z,19.42
2023-03-10T16:48:42.290Z,16.95
2023-03-10T16:51:24.607Z,16.20
2023-03-10T16:53:53.976Z,17.70
2023-03-10T16:56:25.232Z,17.58
2023-03-10T16:58:54.266Z,18.67
2023-03-10T17:01:25.302Z,18.55
2023-03-10T17:03:55.119Z,14.40
2023-03-10T17:06:26.446Z,17.40
2023-03-10T17:08:56.170Z,21.30
2023-03-10T17:11:27.182Z,22.73
2023-03-10T17:13:57.146Z,23.75
2023-03-10T17:16:29.860Z,26.40
2023-03-10T17:18:59.914Z,32.63
2023-03-10T17:21:31.767Z,22.17
2023-03-10T17:24:01.054Z,29.67
2023-03-10T17:26:30.191Z,28.17
2023-03-10T17:28:59.147Z,21.48
2023-03-10T17:31:30.537Z,20.27
2023-03-10T17:34:01.002Z,16.83
2023-03-10T17:36:30.314Z,17.73
2023-03-10T17:39:00.315Z,16.80
2023-03-10T17:41:30.262Z,29.25
2023-03-10T17:43:59.491Z,19.00
2023-03-10T17:46:30.714Z,26.15
2023-03-10T17:49:00.286Z,23.40
2023-03-10T17:51:30.927Z,25.77
2023-03-10T17:54:01.838Z,21.95
2023-03-10T17:56:30.944Z,20.80
2023-03-10T17:59:01.035Z,21.73
2023-03-10T18:01:32.275Z,18.70
2023-03-10T18:04:02.234Z,23.17
2023-03-10T18:06:34.187Z,29.67
2023-03-10T18:09:04.627Z,42.00
2023-03-10T18:11:34.277Z,33.67
2023-03-10T18:14:03.923Z,42.67
2023-03-10T18:16:35.448Z,48.92
2023-03-10T18:19:05.021Z,58.90
2023-03-10T18:21:33.816Z,60.20
2023-03-10T18:24:03.685Z,65.93
2023-03-10T18:26:32.573Z,58.97
2023-03-10T18:29:01.550Z,51.60
2023-03-10T18:31:31.968Z,52.30
2023-03-10T18:34:02.668Z,48.33
2023-03-10T18:36:33.145Z,41.78
2023-03-10T18:39:04.997Z,36.30
2023-03-10T18:41:33.983Z,36.88
2023-03-10T18:44:03.070Z,36.78
2023-03-10T18:46:31.821Z,36.67
2023-03-10T18:49:02.312Z,34.10
2023-03-10T18:51:31.321Z,36.75
2023-03-10T18:54:00.284Z,26.92
2023-03-10T18:56:29.463Z,31.75
2023-03-10T18:58:58.473Z,36.30
2023-03-10T19:01:27.253Z,40.33
2023-03-10T19:03:56.319Z,42.58
2023-03-10T19:06:31.068Z,43.58
2023-03-10T19:09:01.312Z,44.53
2023-03-10T19:11:35.561Z,48.67
2023-03-10T19:14:05.562Z,48.35
2023-03-10T19:16:35.689Z,44.00
2023-03-10T19:19:04.560Z,43.33
2023-03-10T19:21:36.756Z,46.08
2023-03-10T19:24:06.043Z,51.35
2023-03-10T19:26:35.186Z,42.28
2023-03-10T19:29:04.426Z,47.35
2023-03-10T19:31:33.016Z,50.80
2023-03-10T19:34:02.154Z,46.15
2023-03-10T19:36:31.043Z,44.35
2023-03-10T19:39:01.387Z,44.13
2023-03-10T19:43:59.523Z,51.60
2023-03-10T19:46:28.105Z,44.67
2023-03-10T19:48:57.014Z,48.40
2023-03-10T19:51:28.337Z,46.30
2023-03-10T19:53:58.614Z,44.50
2023-03-10T19:56:29.013Z,50.90
2023-03-10T19:58:57.673Z,47.83
2023-03-10T20:01:27.656Z,54.25
2023-03-10T20:04:00.446Z,47.67
2023-03-10T20:06:30.066Z,58.03
2023-03-10T20:08:58.972Z,56.03
2023-03-10T20:11:29.382Z,65.82
2023-03-10T20:13:57.911Z,69.55
2023-03-10T20:16:27.966Z,65.85
2023-03-10T20:18:57.171Z,58.30
2023-03-10T20:21:26.140Z,61.05
2023-03-10T20:23:56.340Z,63.97
2023-03-10T20:28:55.081Z,57.72
2023-03-10T20:33:53.796Z,58.80
2023-03-10T20:36:22.890Z,51.70
2023-03-10T20:38:51.825Z,48.22
2023-03-10T20:41:21.249Z,45.58
2023-03-10T20:43:49.853Z,45.80
2023-03-10T20:46:20.275Z,48.67
2023-03-10T20:48:50.019Z,46.53
2023-03-10T20:51:19.474Z,44.17
2023-03-10T20:53:48.382Z,46.65
2023-03-10T20:56:17.768Z,46.25
2023-03-10T20:58:46.275Z,51.03
2023-03-10T21:01:20.530Z,48.75
2023-03-10T21:03:54.634Z,51.45
2023-03-10T21:06:24.454Z,49.97
2023-03-10T21:08:53.330Z,48.17
2023-03-10T21:11:23.011Z,56.45
2023-03-10T21:13:51.942Z,43.30
2023-03-10T21:16:22.200Z,48.45
2023-03-10T21:21:19.704Z,49.13
2023-03-10T21:23:48.623Z,48.45
2023-03-10T21:26:19.647Z,45.50
2023-03-10T21:28:48.437Z,46.65
2023-03-10T21:31:17.447Z,48.60
2023-03-10T21:33:47.787Z,43.83
2023-03-10T21:38:48.954Z,40.42
2023-03-10T21:41:19.295Z,44.03
2023-03-10T21:46:17.221Z,41.92
2023-03-10T21:48:47.507Z,40.40
2023-03-10T21:53:45.763Z,44.00
2023-03-10T21:56:17.721Z,46.08
2023-03-10T21:58:47.128Z,45.15
2023-03-10T22:01:17.825Z,45.03
2023-03-10T22:03:48.155Z,63.25
2023-03-10T22:06:17.385Z,76.35
2023-03-10T22:08:46.254Z,70.43
2023-03-10T22:11:15.499Z,68.50
2023-03-10T22:13:43.890Z,62.53
2023-03-10T22:16:16.583Z,60.42
2023-03-10T22:18:45.855Z,53.40
2023-03-10T22:21:16.138Z,60.72
2023-03-10T22:23:45.214Z,55.33
2023-03-10T22:26:16.457Z,61.75
2023-03-10T22:28:44.899Z,50.38
2023-03-10T22:31:13.895Z,52.50
2023-03-10T22:33:42.931Z,48.45
2023-03-10T22:36:14.214Z,50.65
2023-03-10T22:38:44.541Z,45.92
2023-03-10T22:43:41.760Z,49.05
2023-03-10T22:46:12.014Z,43.83
2023-03-10T22:48:41.377Z,43.30
2023-03-10T22:51:11.155Z,45.33
2023-03-10T22:53:40.028Z,44.70
2023-03-10T22:56:10.532Z,36.50
2023-03-10T22:58:39.002Z,37.13
2023-03-10T23:01:07.970Z,37.22
2023-03-10T23:03:37.622Z,40.65
2023-03-10T23:06:07.424Z,34.97
2023-03-10T23:08:37.671Z,43.80
2023-03-10T23:11:11.626Z,34.15
2023-03-10T23:13:40.153Z,35.83
2023-03-10T23:16:09.468Z,27.10
2023-03-10T23:18:39.795Z,43.50
2023-03-10T23:21:08.705Z,37.95
2023-03-10T23:23:39.292Z,34.70
2023-03-10T23:26:08.140Z,43.65
2023-03-10T23:28:38.068Z,40.35
2023-03-10T23:33:35.865Z,37.13
2023-03-10T23:36:05.281Z,37.78
2023-03-10T23:38:35.953Z,29.08
2023-03-10T23:41:05.083Z,40.20
2023-03-10T23:43:34.736Z,41.95
2023-03-10T23:46:06.568Z,34.13
2023-03-10T23:48:35.693Z,36.72
2023-03-10T23:51:05.038Z,35.28
2023-03-10T23:53:33.889Z,34.72
2023-03-10T23:56:02.935Z,36.92
2023-03-10T23:58:31.402Z,38.05
